Flight Track Log - Related Links

Times and Time Zones

All times are in EDT time to prevent confusion due to time zone crossing. See the IBE488 flight status page for this flight to view local times or setup timezone preferences in your user account.

Time Position Orientation Groundspeed Altitude Reporting Facility
EDT Latitude Longitude Course Direction KTS MPH feet Rate Location/Type
Sat 06:25:00 AM 42.5935 -5.2240 330° Northwest  Level Estimated
Sat 06:26:00 AM 42.6680 -5.2852 329° Northwest  Level Estimated
Sat 06:27:00 AM 42.7425 -5.3466 329° Northwest  Level Estimated
Sat 06:28:00 AM 42.8170 -5.4081 329° Northwest  Level Estimated
Sat 06:29:00 AM 42.8915 -5.4698 329° Northwest  Level Estimated
Sat 06:30:00 AM 42.9659 -5.5316 329° Northwest  Level Estimated
Sat 06:31:00 AM 43.0403 -5.5936 329° Northwest  Level Estimated
Sat 06:32:00 AM 43.1146 -5.6557 329° Northwest  Level Estimated
Sat 06:33:00 AM 43.1889 -5.7180 329° Northwest  Level Estimated
Sat 06:34:00 AM 43.2632 -5.7804 329° Northwest  Level Estimated
Sat 06:35:00 AM 43.3374 -5.8429 329° Northwest  Level Estimated
Sat 06:36:00 AM 43.4117 -5.9057 328° Northwest  Level Estimated
Sat 06:37:00 AM 43.4858 -5.9685 328° Northwest  Level Estimated
Sat 06:38:00 AM 43.5600 -6.0316 328° Northwest  Level Estimated
Sat 06:39:00 AM 43.5636 -6.0346 328° Northwest  Level Estimated
Sat 06:40:00 AM 43.5636 -6.0346 206° Southwest  Level Estimated
Sat 06:41:00 AM 43.5636 -6.0346 206° Southwest  Level Estimated
Sat 06:42:00 AM 43.5636 -6.0346 206° Southwest  Level Estimated
Sat 06:43:00 AM 43.5636 -6.0346 206° Southwest  Level Estimated
Sat 06:44:00 AM 43.5636 -6.0346 206° Southwest  Level Estimated
Sat 06:45:00 AM 43.5636 -6.0346 206° Southwest  Level Estimated
Sat 06:46:00 AM 43.5636 -6.0346 206° Southwest  Level Estimated
Sat 06:47:00 AM 43.5636 -6.0346 206° Southwest  Level Estimated
Sat 06:48:00 AM 43.5636 -6.0346 206° Southwest  Level Estimated
Sat 06:49:00 AM 43.5636 -6.0346 206° Southwest  Level Estimated
Sat 06:50:00 AM 43.5636 -6.0346 206° Southwest  Level Estimated
Sat 06:51:00 AM 43.5636 -6.0346 206° Southwest  Level Estimated
Sat 06:52:00 AM 43.5636 -6.0346 206° Southwest  Level Estimated
Sat 06:53:00 AM 43.5636 -6.0346 206° Southwest  Level Estimated
Sat 06:54:00 AM 43.5636 -6.0346 206° Southwest  Level Estimated

Login

Don't have an account? Register now (free) for customized features, flight alerts, and more!